Time;durP1;ratioP1;P1;durP2;ratioP2;P2;SDS_P1;SDS_P2;PMS_P1;PMS_P2;Temp;Humidity;BMP_temperature;BMP_pressure;BME280_temperature;BME280_humidity;BME280_pressure;Samples;Min_cycle;Max_cycle;Signal;HPM_P1;HPM_P2
2022/12/03 00:01:13;;;;;;;73.40;31.48;;;-0.10;99.90;;;;;;4983903;28;20481;-70
2022/12/03 00:03:39;;;;;;;72.25;32.10;;;-0.10;99.90;;;;;;4979949;28;20050;-70
2022/12/03 00:06:06;;;;;;;69.40;34.47;;;-0.20;99.90;;;;;;4972937;28;20489;-70
2022/12/03 00:08:33;;;;;;;65.85;33.55;;;-0.20;99.90;;;;;;4980559;28;20519;-70
2022/12/03 00:11:00;;;;;;;68.03;29.38;;;-0.10;99.90;;;;;;4977426;28;20035;-70
2022/12/03 00:13:26;;;;;;;75.57;33.00;;;-0.20;99.90;;;;;;4980907;28;20451;-70
2022/12/03 00:15:53;;;;;;;69.93;31.75;;;-0.10;99.90;;;;;;4980508;28;20720;-70
2022/12/03 00:18:20;;;;;;;54.78;28.08;;;-0.10;99.90;;;;;;4972242;28;20066;-69
2022/12/03 00:20:47;;;;;;;66.55;29.77;;;-0.20;99.90;;;;;;4965403;28;20046;-70
2022/12/03 00:23:14;;;;;;;50.65;25.25;;;-0.20;99.90;;;;;;4972257;28;20073;-70
2022/12/03 00:25:40;;;;;;;76.10;32.53;;;-0.30;99.90;;;;;;4979003;28;20053;-69
2022/12/03 00:28:08;;;;;;;67.32;30.15;;;-0.20;99.90;;;;;;4977474;28;20308;-70
2022/12/03 00:30:35;;;;;;;63.38;27.80;;;-0.20;99.90;;;;;;4971572;28;20050;-70
2022/12/03 00:33:02;;;;;;;63.47;31.52;;;-0.20;99.90;;;;;;4980910;28;20077;-70
2022/12/03 00:35:29;;;;;;;76.88;33.95;;;-0.20;99.90;;;;;;4983574;28;20440;-70
2022/12/03 00:37:55;;;;;;;67.18;29.55;;;-0.20;99.90;;;;;;4984281;28;20077;-70
2022/12/03 00:40:22;;;;;;;62.53;28.77;;;-0.20;99.90;;;;;;4972148;28;20164;-70
2022/12/03 00:42:48;;;;;;;57.72;25.75;;;-0.20;99.90;;;;;;4963859;28;20046;-70
2022/12/03 00:45:15;;;;;;;63.47;26.75;;;-0.20;99.90;;;;;;4969705;28;20089;-69
2022/12/03 00:47:42;;;;;;;68.07;31.63;;;-0.30;99.90;;;;;;4980541;28;20042;-69
2022/12/03 00:50:09;;;;;;;65.65;27.35;;;-0.30;99.90;;;;;;4978158;28;20138;-69
2022/12/03 00:52:35;;;;;;;69.65;28.67;;;-0.20;99.90;;;;;;4970226;28;20037;-70
2022/12/03 00:55:02;;;;;;;71.47;31.85;;;-0.20;99.90;;;;;;4981215;28;20081;-70
2022/12/03 00:57:29;;;;;;;56.90;24.77;;;-0.20;99.90;;;;;;4980828;28;20061;-70
2022/12/03 00:59:56;;;;;;;73.25;30.33;;;-0.20;99.90;;;;;;4965270;28;20053;-70
2022/12/03 01:02:22;;;;;;;77.88;30.95;;;-0.20;99.90;;;;;;4982093;28;20057;-70
2022/12/03 01:04:49;;;;;;;57.45;26.63;;;-0.20;99.90;;;;;;4967217;28;20069;-70
2022/12/03 01:07:17;;;;;;;66.13;26.90;;;-0.20;99.90;;;;;;4962591;28;20292;-72
2022/12/03 01:09:43;;;;;;;61.58;26.13;;;-0.30;99.90;;;;;;4965040;28;20050;-69
2022/12/03 01:12:10;;;;;;;69.85;27.73;;;-0.30;99.90;;;;;;4983688;28;20035;-70
2022/12/03 01:14:37;;;;;;;83.40;32.30;;;-0.30;99.90;;;;;;4966585;28;20069;-69
2022/12/03 01:17:04;;;;;;;65.22;27.85;;;-0.30;99.90;;;;;;4977404;28;20416;-69
2022/12/03 01:19:30;;;;;;;65.47;27.95;;;-0.30;99.90;;;;;;4988969;28;20065;-68
2022/12/03 01:21:57;;;;;;;71.57;29.58;;;-0.30;99.90;;;;;;4967220;28;20458;-70
2022/12/03 01:24:24;;;;;;;71.30;31.55;;;-0.30;99.90;;;;;;4986477;28;20051;-69
2022/12/03 01:26:50;;;;;;;79.85;31.10;;;-0.30;99.90;;;;;;4977375;28;20318;-70
2022/12/03 01:29:17;;;;;;;84.20;31.80;;;-0.30;99.90;;;;;;4972761;28;20054;-70
2022/12/03 01:34:29;;;;;;;72.47;31.15;;;-0.30;99.90;;;;;;4981198;28;20038;-69
2022/12/03 01:36:56;;;;;;;67.40;30.52;;;-0.30;99.90;;;;;;4963646;28;20058;-69
2022/12/03 01:39:23;;;;;;;83.03;34.13;;;-0.30;99.90;;;;;;4968919;28;20243;-70
2022/12/03 01:41:51;;;;;;;73.05;31.08;;;-0.30;99.90;;;;;;4976272;28;20416;-70
2022/12/03 01:44:23;;;;;;;60.35;25.77;;;-0.30;99.90;;;;;;4982470;28;20178;-69
2022/12/03 01:46:53;;;;;;;68.40;26.10;;;-0.30;99.90;;;;;;4985292;28;20133;-69
2022/12/03 01:49:30;;;;;;;71.15;27.80;;;-0.40;99.90;;;;;;4979338;28;20066;-69
2022/12/03 01:51:57;;;;;;;59.88;23.77;;;-0.40;99.90;;;;;;4980267;28;20416;-70
2022/12/03 01:54:29;;;;;;;76.10;29.33;;;-0.40;99.90;;;;;;4970976;28;20038;-72
2022/12/03 01:56:57;;;;;;;55.30;21.23;;;-0.40;99.90;;;;;;4979077;28;20093;-72
2022/12/03 01:59:33;;;;;;;58.80;23.02;;;-0.40;99.90;;;;;;4981269;28;20565;-70
2022/12/03 02:02:10;;;;;;;67.25;26.92;;;-0.30;99.90;;;;;;4974440;28;20062;-69
2022/12/03 02:04:37;;;;;;;55.50;22.85;;;-0.30;99.90;;;;;;4978707;28;20042;-70
2022/12/03 02:07:28;;;;;;;68.30;27.02;;;-0.30;99.90;;;;;;4980079;28;20038;-69
2022/12/03 02:09:57;;;;;;;61.67;24.63;;;-0.40;99.90;;;;;;4975902;28;20045;-69
2022/12/03 02:12:34;;;;;;;69.88;28.40;;;-0.50;99.90;;;;;;4989106;28;20483;-72
2022/12/03 02:15:01;;;;;;;43.47;20.85;;;-0.40;99.90;;;;;;4979106;28;20809;-69
2022/12/03 02:17:28;;;;;;;58.42;24.33;;;-0.40;99.90;;;;;;4983730;28;20034;-69
2022/12/03 02:19:55;;;;;;;62.60;22.73;;;-0.40;99.90;;;;;;4987219;28;20047;-69
2022/12/03 02:22:31;;;;;;;65.53;25.38;;;-0.40;99.90;;;;;;4963479;28;20042;-68
2022/12/03 02:25:09;;;;;;;75.78;30.48;;;-0.40;99.90;;;;;;4979832;28;20053;-69
2022/12/03 02:27:37;;;;;;;73.22;25.98;;;-0.40;99.90;;;;;;4962214;28;20348;-68
2022/12/03 02:30:05;;;;;;;78.72;25.23;;;-0.40;99.90;;;;;;4980208;28;20042;-69
2022/12/03 02:32:32;;;;;;;67.65;25.40;;;-0.40;99.90;;;;;;4980141;28;20042;-69
2022/12/03 02:34:59;;;;;;;58.60;24.42;;;-0.40;99.90;;;;;;4973647;28;20038;-69
2022/12/03 02:37:31;;;;;;;76.10;27.55;;;-0.50;99.90;;;;;;4969456;28;20509;-69
2022/12/03 02:40:01;;;;;;;75.65;27.13;;;-0.50;99.90;;;;;;4961806;28;20847;-69
2022/12/03 02:42:34;;;;;;;69.43;26.35;;;-0.60;99.90;;;;;;4951805;28;20069;-69
2022/12/03 02:45:27;;;;;;;78.13;27.98;;;-0.60;99.90;;;;;;4977229;28;20059;-71
2022/12/03 02:47:58;;;;;;;76.00;27.73;;;-0.50;99.90;;;;;;4965383;28;20041;-69
2022/12/03 02:50:29;;;;;;;73.20;25.98;;;-0.50;99.90;;;;;;4969607;28;20145;-71
2022/12/03 02:52:59;;;;;;;71.20;27.92;;;-0.50;99.90;;;;;;4977056;28;20125;-71
2022/12/03 02:55:27;;;;;;;82.63;28.00;;;-0.50;99.90;;;;;;4967631;28;20045;-71
2022/12/03 02:58:03;;;;;;;68.78;24.55;;;-0.60;99.90;;;;;;4959303;28;20104;-71
2022/12/03 03:00:30;;;;;;;76.88;27.95;;;-0.60;99.90;;;;;;4965098;28;20057;-71
2022/12/03 03:02:58;;;;;;;74.70;28.33;;;-0.60;99.90;;;;;;4970491;28;21750;-69
2022/12/03 03:05:24;;;;;;;69.47;25.38;;;-0.60;99.90;;;;;;4975749;28;20050;-69
2022/12/03 03:07:51;;;;;;;72.22;28.35;;;-0.60;99.90;;;;;;4979168;28;20038;-69
2022/12/03 03:10:21;;;;;;;62.88;25.00;;;-0.70;99.90;;;;;;4978793;28;20221;-69
2022/12/03 03:12:49;;;;;;;72.25;24.40;;;-0.70;99.90;;;;;;4983009;28;20042;-69
2022/12/03 03:15:16;;;;;;;85.40;26.25;;;-0.70;99.90;;;;;;4961079;28;20054;-69
2022/12/03 03:17:43;;;;;;;88.28;29.73;;;-0.70;99.90;;;;;;4961040;28;20519;-69
2022/12/03 03:20:11;;;;;;;84.97;27.02;;;-0.70;99.90;;;;;;4976160;28;20118;-70
2022/12/03 03:22:41;;;;;;;76.00;26.83;;;-0.60;99.90;;;;;;4973646;28;20049;-68
2022/12/03 03:25:11;;;;;;;76.70;25.20;;;-0.60;99.90;;;;;;4964513;28;20053;-69
2022/12/03 03:27:40;;;;;;;69.80;25.85;;;-0.60;99.90;;;;;;4964650;28;20042;-69
2022/12/03 03:30:08;;;;;;;81.35;27.75;;;-0.60;99.90;;;;;;4980554;28;20070;-70
2022/12/03 03:32:36;;;;;;;52.10;20.33;;;-0.60;99.90;;;;;;4965622;28;20061;-69
2022/12/03 03:35:03;;;;;;;72.70;24.13;;;-0.70;99.90;;;;;;4958514;28;20072;-69
2022/12/03 03:37:30;;;;;;;75.80;25.70;;;-0.70;99.90;;;;;;4976151;28;20054;-69
2022/12/03 03:39:56;;;;;;;82.95;28.23;;;-0.70;99.90;;;;;;4958599;28;20074;-70
2022/12/03 03:42:23;;;;;;;74.65;25.75;;;-0.70;99.90;;;;;;4957437;28;20069;-69
2022/12/03 03:44:50;;;;;;;76.15;23.98;;;-0.70;99.90;;;;;;4981466;28;20049;-69
2022/12/03 03:47:18;;;;;;;73.40;25.20;;;-0.70;99.90;;;;;;4972708;28;20042;-69
2022/12/03 03:49:46;;;;;;;76.63;25.50;;;-0.70;99.90;;;;;;4979387;28;20611;-69
2022/12/03 03:52:13;;;;;;;73.40;24.90;;;-0.70;99.90;;;;;;4967986;28;20060;-69
2022/12/03 03:54:44;;;;;;;57.28;21.77;;;-0.70;99.90;;;;;;4975738;28;20035;-69
2022/12/03 03:57:11;;;;;;;88.07;27.27;;;-0.80;99.90;;;;;;4961015;28;20042;-69
2022/12/03 03:59:37;;;;;;;92.15;29.08;;;-0.80;99.90;;;;;;4970104;28;20042;-69
2022/12/03 04:02:04;;;;;;;82.93;30.25;;;-0.70;99.90;;;;;;4959084;28;20137;-69
2022/12/03 04:04:35;;;;;;;83.72;29.17;;;-0.70;99.90;;;;;;4960602;28;20050;-69
2022/12/03 04:07:02;;;;;;;87.03;27.40;;;-0.80;99.90;;;;;;4970610;28;20555;-68
2022/12/03 04:09:29;;;;;;;88.22;26.90;;;-0.70;99.90;;;;;;4982000;28;20034;-71
2022/12/03 04:14:41;;;;;;;;;;;-0.70;99.90;;;;;;4974624;28;20119;-70
2022/12/03 04:17:07;;;;;;;87.22;27.55;;;-0.80;99.90;;;;;;4961268;28;19930;-69
2022/12/03 04:19:34;;;;;;;90.47;27.75;;;-0.70;99.90;;;;;;4961620;28;20520;-68
2022/12/03 04:24:46;;;;;;;;;;;-0.80;99.90;;;;;;4959994;28;20050;-69
2022/12/03 04:29:58;;;;;;;77.60;26.27;;;-0.80;99.90;;;;;;4986587;28;21046;-69
2022/12/03 04:37:56;;;;;;;99.30;30.40;;;-0.80;99.90;;;;;;4980499;28;20054;-69
2022/12/03 04:43:08;;;;;;;84.68;26.75;;;-0.80;99.90;;;;;;4966280;28;20042;-69
2022/12/03 04:45:35;;;;;;;93.55;31.50;;;-0.80;99.90;;;;;;4975481;28;20046;-69
2022/12/03 04:48:01;;;;;;;98.95;31.40;;;-0.80;99.90;;;;;;4966188;28;20057;-69
2022/12/03 04:50:28;;;;;;;100.65;31.77;;;-0.80;99.90;;;;;;4983487;28;20515;-69
2022/12/03 04:52:54;;;;;;;110.38;33.97;;;-0.80;99.90;;;;;;4965194;28;20046;-70
2022/12/03 04:55:21;;;;;;;100.28;32.22;;;-0.70;99.90;;;;;;4976313;28;20042;-69
2022/12/03 04:57:48;;;;;;;100.32;30.40;;;-0.80;99.90;;;;;;4960595;28;20429;-69
2022/12/03 05:00:15;;;;;;;96.43;30.67;;;-0.90;99.90;;;;;;4978534;28;20058;-69
2022/12/03 05:02:42;;;;;;;100.28;31.60;;;-1.00;99.90;;;;;;4982921;28;20187;-68
2022/12/03 05:05:09;;;;;;;108.95;29.00;;;-1.00;99.90;;;;;;4971847;28;20133;-69
2022/12/03 05:07:36;;;;;;;92.55;29.80;;;-0.80;99.90;;;;;;4967161;28;20047;-69
2022/12/03 05:10:04;;;;;;;103.43;31.77;;;-0.90;99.90;;;;;;4955477;28;20100;-69
2022/12/03 05:12:31;;;;;;;108.47;32.60;;;-0.80;99.90;;;;;;4958506;28;20051;-69
2022/12/03 05:14:58;;;;;;;94.97;30.77;;;-0.90;99.90;;;;;;4973581;28;20042;-69
2022/12/03 05:17:24;;;;;;;64.57;21.33;;;-0.90;99.90;;;;;;4975172;28;20045;-69
2022/12/03 05:22:36;;;;;;;;;;;-1.00;99.90;;;;;;4958220;28;20357;-69
2022/12/03 05:25:03;;;;;;;77.85;27.25;;;-0.90;99.90;;;;;;4967910;28;20016;-69
2022/12/03 05:27:30;;;;;;;68.53;22.80;;;-0.90;99.90;;;;;;4969599;28;20412;-69
2022/12/03 05:29:56;;;;;;;98.53;29.15;;;-0.90;99.90;;;;;;4968389;28;20046;-69
2022/12/03 05:32:23;;;;;;;91.28;31.27;;;-0.90;99.90;;;;;;4977229;28;20046;-69
2022/12/03 05:34:50;;;;;;;98.65;31.48;;;-0.90;99.90;;;;;;4969982;28;20413;-69
2022/12/03 05:37:17;;;;;;;92.47;31.48;;;-0.80;99.90;;;;;;4964302;28;20062;-69
2022/12/03 05:39:44;;;;;;;86.00;28.20;;;-0.80;99.90;;;;;;4986818;28;20042;-69
2022/12/03 05:44:56;;;;;;;90.50;29.80;;;-0.80;99.90;;;;;;4988134;28;20076;-69
2022/12/03 05:47:22;;;;;;;94.63;30.30;;;-0.80;99.90;;;;;;4972744;28;20049;-69
2022/12/03 05:49:49;;;;;;;81.47;27.50;;;-0.80;99.90;;;;;;4975453;28;20296;-69
2022/12/03 05:52:16;;;;;;;87.80;29.67;;;-0.80;99.90;;;;;;4977164;28;20045;-69
2022/12/03 05:54:42;;;;;;;79.82;30.10;;;-0.80;99.90;;;;;;4964970;28;20043;-69
2022/12/03 05:57:09;;;;;;;71.22;26.52;;;-0.80;99.90;;;;;;4975758;28;20107;-69
2022/12/03 05:59:35;;;;;;;90.43;31.23;;;-0.80;99.90;;;;;;4962953;28;20404;-69
2022/12/03 06:02:02;;;;;;;88.47;30.05;;;-0.90;99.90;;;;;;4961438;28;20051;-69
2022/12/03 06:04:29;;;;;;;92.00;31.48;;;-0.90;99.90;;;;;;4965284;28;20380;-69
2022/12/03 06:06:56;;;;;;;92.78;32.08;;;-0.90;99.90;;;;;;4959887;28;20053;-70
2022/12/03 06:09:23;;;;;;;88.20;30.02;;;-0.80;99.90;;;;;;4977525;28;20045;-69
2022/12/03 06:11:52;;;;;;;90.22;26.80;;;-0.90;99.90;;;;;;4975549;28;20524;-69
2022/12/03 06:14:20;;;;;;;82.80;27.52;;;-0.90;99.90;;;;;;4978971;28;20312;-69
2022/12/03 06:16:47;;;;;;;85.10;27.17;;;-0.90;99.90;;;;;;4964487;28;20046;-70
2022/12/03 06:19:13;;;;;;;88.70;30.20;;;-0.90;99.90;;;;;;4981837;28;20056;-70
2022/12/03 06:21:40;;;;;;;90.25;30.30;;;-0.90;99.90;;;;;;4973864;28;20047;-70
2022/12/03 06:24:07;;;;;;;88.38;31.20;;;-0.90;99.90;;;;;;4962059;28;20398;-69
2022/12/03 06:26:34;;;;;;;77.53;27.45;;;-0.80;99.90;;;;;;4963897;28;20061;-70
2022/12/03 06:29:00;;;;;;;93.38;30.65;;;-0.80;99.90;;;;;;4976166;28;20034;-70
2022/12/03 06:31:27;;;;;;;55.63;22.13;;;-0.80;99.90;;;;;;4957783;28;20137;-69
2022/12/03 06:33:54;;;;;;;79.97;26.02;;;-0.80;99.90;;;;;;4979944;28;20038;-69
2022/12/03 06:36:20;;;;;;;57.20;22.60;;;-0.90;99.90;;;;;;4961968;28;20061;-69
2022/12/03 06:38:49;;;;;;;93.07;30.55;;;-0.90;99.90;;;;;;4966741;28;20046;-70
2022/12/03 06:41:15;;;;;;;70.72;25.02;;;-0.90;99.90;;;;;;4967778;28;20042;-70
2022/12/03 06:43:42;;;;;;;84.18;30.33;;;-0.90;99.90;;;;;;4974012;28;20568;-70
2022/12/03 06:46:09;;;;;;;89.93;32.92;;;-0.90;99.90;;;;;;4979041;28;20041;-69
2022/12/03 06:48:35;;;;;;;85.53;32.80;;;-0.90;99.90;;;;;;4968260;28;20092;-70
2022/12/03 06:51:02;;;;;;;73.05;27.92;;;-0.90;99.90;;;;;;4971404;28;20042;-70
2022/12/03 06:53:29;;;;;;;86.60;31.70;;;-0.90;99.90;;;;;;4982368;28;20539;-69
2022/12/03 06:55:56;;;;;;;83.28;28.70;;;-0.90;99.90;;;;;;4982356;28;20046;-69
2022/12/03 06:58:22;;;;;;;84.18;26.75;;;-0.90;99.90;;;;;;4964474;28;20129;-69
2022/12/03 07:00:49;;;;;;;95.63;32.88;;;-0.90;99.90;;;;;;4974586;28;20042;-70
2022/12/03 07:03:16;;;;;;;86.63;28.75;;;-0.90;99.90;;;;;;4981283;28;20419;-70
2022/12/03 07:05:43;;;;;;;84.47;30.38;;;-0.90;99.90;;;;;;4963456;28;20050;-70
2022/12/03 07:08:09;;;;;;;92.22;31.35;;;-0.90;99.90;;;;;;4975840;28;20512;-70
2022/12/03 07:10:36;;;;;;;86.95;30.95;;;-1.00;99.90;;;;;;4968327;28;20133;-70
2022/12/03 07:13:03;;;;;;;91.47;31.55;;;-1.00;99.90;;;;;;4960814;28;21023;-70
2022/12/03 07:15:30;;;;;;;78.10;29.70;;;-0.90;99.90;;;;;;4972343;28;20049;-70
2022/12/03 07:17:56;;;;;;;92.03;31.92;;;-0.90;99.90;;;;;;4963854;28;20049;-70
2022/12/03 07:20:23;;;;;;;78.80;27.90;;;-1.00;99.90;;;;;;4982447;28;20053;-69
2022/12/03 07:22:49;;;;;;;85.15;31.88;;;-0.90;99.90;;;;;;4977531;28;20038;-74
2022/12/03 07:25:16;;;;;;;85.07;31.02;;;-0.90;99.90;;;;;;4982301;28;20065;-73
2022/12/03 07:27:48;;;;;;;92.72;32.13;;;-0.80;99.90;;;;;;4961813;28;20050;-74
2022/12/03 07:30:15;;;;;;;84.80;29.35;;;-0.80;99.90;;;;;;4969972;28;20529;-75
2022/12/03 07:32:42;;;;;;;84.80;30.67;;;-0.80;99.90;;;;;;4984726;28;20042;-73
2022/12/03 07:35:09;;;;;;;88.63;31.27;;;-0.80;99.90;;;;;;4980714;28;20497;-73
2022/12/03 07:37:36;;;;;;;89.63;33.28;;;-0.80;99.90;;;;;;4977604;28;20449;-74
2022/12/03 07:40:04;;;;;;;86.25;32.83;;;-0.80;99.90;;;;;;4977988;28;20055;-74
2022/12/03 07:42:31;;;;;;;79.85;31.77;;;-0.70;99.90;;;;;;4991629;28;20050;-74
2022/12/03 07:44:57;;;;;;;87.68;34.72;;;-0.60;99.90;;;;;;4984254;28;20050;-73
2022/12/03 07:47:24;;;;;;;96.38;32.97;;;-0.70;99.90;;;;;;4961899;28;20398;-73
2022/12/03 07:49:51;;;;;;;99.10;33.78;;;-0.70;99.90;;;;;;4976829;28;20473;-73
2022/12/03 07:52:17;;;;;;;89.68;31.77;;;-0.70;99.90;;;;;;4989930;28;20038;-74
2022/12/03 07:54:44;;;;;;;90.05;30.63;;;-0.80;99.90;;;;;;4980827;28;20053;-73
2022/12/03 07:57:11;;;;;;;89.32;33.58;;;-0.80;99.90;;;;;;4985235;28;20054;-74
2022/12/03 07:59:38;;;;;;;93.93;33.65;;;-0.90;99.90;;;;;;4980340;28;20062;-74
2022/12/03 08:02:08;;;;;;;99.28;34.58;;;-0.80;99.90;;;;;;4970301;28;20053;-74
2022/12/03 08:04:35;;;;;;;84.97;32.28;;;-0.80;99.90;;;;;;4968693;28;20054;-74
2022/12/03 08:07:01;;;;;;;89.75;38.85;;;-0.80;99.90;;;;;;4978351;28;20113;-74
2022/12/03 08:09:28;;;;;;;74.22;31.77;;;-0.70;99.90;;;;;;4971426;28;20046;-74
2022/12/03 08:12:13;;;;;;;77.38;31.70;;;-0.70;99.90;;;;;;4974077;28;20284;-74
2022/12/03 08:14:39;;;;;;;74.00;34.33;;;-0.70;99.90;;;;;;4968321;28;20373;-73
2022/12/03 08:17:11;;;;;;;80.65;35.08;;;-0.80;99.90;;;;;;4983588;28;20408;-74
2022/12/03 08:19:41;;;;;;;88.30;49.83;;;-0.70;99.90;;;;;;4972247;28;20050;-73
2022/12/03 08:22:17;;;;;;;77.20;32.95;;;-0.70;99.90;;;;;;4990249;28;20501;-73
2022/12/03 08:24:44;;;;;;;75.07;34.97;;;-0.60;99.90;;;;;;4990127;28;20732;-74
2022/12/03 08:27:17;;;;;;;80.93;35.97;;;-0.60;99.90;;;;;;4955457;28;20052;-74
2022/12/03 08:29:44;;;;;;;76.75;36.63;;;-0.50;99.90;;;;;;4984391;28;20042;-73
2022/12/03 08:32:12;;;;;;;78.90;34.13;;;-0.50;99.90;;;;;;4969034;28;20050;-74
2022/12/03 08:34:43;;;;;;;83.90;41.08;;;-0.40;99.90;;;;;;4985353;28;20121;-73
2022/12/03 08:37:19;;;;;;;75.65;35.05;;;-0.40;99.90;;;;;;4971550;28;20050;-74
2022/12/03 08:39:48;;;;;;;68.35;33.40;;;-0.40;99.90;;;;;;4984448;28;20038;-74
2022/12/03 08:45:38;;;;;;;59.22;31.08;;;-0.50;99.90;;;;;;4972346;28;20061;-74
2022/12/03 08:48:19;;;;;;;71.10;34.60;;;-0.50;99.90;;;;;;4956504;28;20050;-75
2022/12/03 08:50:46;;;;;;;55.72;29.20;;;-0.50;99.90;;;;;;4983638;28;20034;-73
2022/12/03 08:53:33;;;;;;;55.47;29.10;;;-0.50;99.90;;;;;;4991290;28;20424;-74
2022/12/03 08:56:16;;;;;;;57.03;31.95;;;-0.50;99.90;;;;;;4969817;28;20136;-74
2022/12/03 08:58:46;;;;;;;61.83;30.95;;;-0.60;99.90;;;;;;4964692;28;20619;-74
2022/12/03 09:01:18;;;;;;;60.25;33.40;;;-0.50;99.90;;;;;;4971496;28;20295;-74
2022/12/03 09:06:16;;;;;;;52.33;30.17;;;-0.30;99.90;;;;;;4934614;28;20051;-73
2022/12/03 09:08:42;;;;;;;58.47;32.38;;;-0.30;99.90;;;;;;4940698;28;20095;-72
2022/12/03 09:11:09;;;;;;;62.78;33.17;;;-0.40;99.90;;;;;;4940128;28;20050;-73
2022/12/03 09:13:36;;;;;;;55.38;30.70;;;-0.50;99.90;;;;;;4941484;28;20050;-73
2022/12/03 09:16:02;;;;;;;55.78;30.98;;;-0.50;99.90;;;;;;4936418;28;20047;-72
2022/12/03 09:18:29;;;;;;;56.42;31.92;;;-0.50;99.90;;;;;;4938320;28;20051;-71
2022/12/03 09:20:59;;;;;;;61.45;34.00;;;-0.40;99.90;;;;;;4919592;28;20110;-71
2022/12/03 09:23:26;;;;;;;52.08;32.42;;;-0.30;99.90;;;;;;4920367;28;20067;-71
2022/12/03 09:25:52;;;;;;;56.95;33.42;;;-0.20;99.90;;;;;;4936376;28;20043;-71
2022/12/03 09:28:19;;;;;;;59.78;37.10;;;-0.30;99.90;;;;;;4940894;28;20506;-71
2022/12/03 09:30:46;;;;;;;55.42;35.50;;;-0.40;99.90;;;;;;4932042;28;20416;-71
2022/12/03 09:33:12;;;;;;;56.60;34.80;;;-0.40;99.90;;;;;;4938837;28;20035;-71
2022/12/03 09:35:39;;;;;;;51.45;32.13;;;-0.30;99.90;;;;;;4934574;28;20292;-70
2022/12/03 09:38:06;;;;;;;61.60;38.17;;;-0.40;99.90;;;;;;4937851;28;20228;-70
2022/12/03 09:40:33;;;;;;;60.03;37.55;;;-0.50;99.90;;;;;;4936544;28;20069;-70
2022/12/03 09:42:59;;;;;;;57.33;34.30;;;-0.30;99.90;;;;;;4936959;28;20398;-70
2022/12/03 09:45:26;;;;;;;51.35;33.20;;;-0.40;99.90;;;;;;4938308;28;20050;-71
2022/12/03 09:47:54;;;;;;;56.17;36.22;;;-0.50;99.90;;;;;;4924158;28;20043;-70
2022/12/03 09:50:26;;;;;;;58.83;34.75;;;-0.40;99.90;;;;;;4933445;28;20047;-70
2022/12/03 09:52:55;;;;;;;58.28;35.10;;;-0.40;99.90;;;;;;4933004;28;20046;-70
2022/12/03 09:55:25;;;;;;;54.42;32.75;;;-0.50;99.90;;;;;;4934673;28;20047;-70
2022/12/03 09:57:53;;;;;;;54.97;35.10;;;-0.30;99.90;;;;;;4933918;28;20074;-70
2022/12/03 10:00:22;;;;;;;57.28;34.88;;;-0.40;99.90;;;;;;4933521;28;20055;-69
2022/12/03 10:02:51;;;;;;;57.03;35.65;;;-0.40;99.90;;;;;;4934296;28;20050;-70
2022/12/03 10:05:20;;;;;;;55.42;38.35;;;-0.40;99.90;;;;;;4938846;28;20249;-70
2022/12/03 10:07:49;;;;;;;54.78;33.55;;;-0.40;99.90;;;;;;4936082;28;20058;-70
2022/12/03 10:10:21;;;;;;;55.35;34.42;;;-0.40;99.90;;;;;;4939148;28;20240;-70
2022/12/03 10:12:52;;;;;;;87.00;49.47;;;-0.50;99.90;;;;;;4934561;28;20043;-70
2022/12/03 10:15:21;;;;;;;57.33;33.97;;;-0.50;99.90;;;;;;4937974;28;20043;-70
2022/12/03 10:17:51;;;;;;;52.65;33.75;;;-0.50;99.90;;;;;;4936960;28;20110;-70
2022/12/03 10:20:21;;;;;;;77.13;44.75;;;-0.50;99.90;;;;;;4935006;28;20054;-70
2022/12/03 10:22:48;;;;;;;47.53;31.05;;;-0.40;99.90;;;;;;4935056;28;20047;-70
2022/12/03 10:25:18;;;;;;;52.58;33.45;;;-0.40;99.90;;;;;;4921432;29;20039;-69
2022/12/03 10:27:56;;;;;;;50.40;33.40;;;-0.50;99.90;;;;;;4920059;28;20043;-70
2022/12/03 10:30:25;;;;;;;55.03;31.13;;;-0.50;99.90;;;;;;4934435;28;20043;-71
2022/12/03 10:32:53;;;;;;;52.42;41.85;;;-0.50;99.90;;;;;;4933690;28;20382;-70
2022/12/03 10:35:35;;;;;;;58.97;36.70;;;-0.40;99.90;;;;;;4934000;28;20070;-70
2022/12/03 10:38:18;;;;;;;55.53;37.53;;;-0.40;99.90;;;;;;4937352;28;20043;-69
2022/12/03 10:40:45;;;;;;;60.08;36.33;;;-0.40;99.90;;;;;;4937531;28;20048;-70
2022/12/03 10:43:18;;;;;;;56.70;37.72;;;-0.40;99.90;;;;;;4937951;28;20034;-71
2022/12/03 10:45:49;;;;;;;67.60;43.70;;;-0.30;99.90;;;;;;4936194;28;20045;-70
2022/12/03 10:48:26;;;;;;;62.35;41.50;;;-0.20;99.90;;;;;;4938946;28;20097;-70
2022/12/03 10:51:00;;;;;;;59.97;39.08;;;-0.20;99.90;;;;;;4935538;28;20043;-70
2022/12/03 10:53:30;;;;;;;60.30;37.97;;;-0.20;99.90;;;;;;4941117;28;20051;-72
2022/12/03 10:56:00;;;;;;;49.85;35.53;;;-0.20;99.90;;;;;;4935019;28;20039;-70
2022/12/03 10:58:30;;;;;;;48.20;32.72;;;-0.20;99.90;;;;;;4939809;28;20327;-70
2022/12/03 11:01:00;;;;;;;48.13;34.40;;;-0.30;99.90;;;;;;4937076;28;20043;-69
2022/12/03 11:03:32;;;;;;;50.45;34.40;;;-0.40;99.90;;;;;;4938586;28;20051;-69
2022/12/03 11:06:00;;;;;;;52.25;38.03;;;-0.40;99.90;;;;;;4935076;28;20486;-70
2022/12/03 11:08:34;;;;;;;47.47;33.53;;;-0.30;99.90;;;;;;4926725;29;20379;-70
2022/12/03 11:11:02;;;;;;;45.78;37.40;;;-0.30;99.90;;;;;;4956866;28;20050;-70
2022/12/03 11:13:31;;;;;;;55.10;37.90;;;-0.30;99.90;;;;;;4957100;28;20111;-71
2022/12/03 11:16:00;;;;;;;56.60;39.35;;;-0.30;99.90;;;;;;4947301;28;20058;-71
2022/12/03 11:18:35;;;;;;;47.47;35.53;;;-0.40;99.90;;;;;;4923131;29;20069;-71
2022/12/03 11:21:07;;;;;;;52.83;37.35;;;-0.50;99.90;;;;;;4935580;28;20055;-71
2022/12/03 11:23:46;;;;;;;54.05;37.30;;;-0.50;99.90;;;;;;4937059;28;20494;-70
2022/12/03 11:26:28;;;;;;;56.10;39.60;;;-0.40;99.90;;;;;;4937060;28;20043;-70
2022/12/03 11:28:58;;;;;;;51.97;39.75;;;-0.40;99.90;;;;;;4932924;28;20047;-71
2022/12/03 11:31:42;;;;;;;87.38;56.67;;;-0.40;99.90;;;;;;4937984;28;20473;-70
2022/12/03 11:34:19;;;;;;;49.20;35.30;;;-0.30;99.90;;;;;;4935646;28;20522;-70
2022/12/03 11:37:10;;;;;;;55.05;37.55;;;-0.30;99.90;;;;;;4933653;28;20102;-70
2022/12/03 11:39:44;;;;;;;61.63;44.13;;;-0.40;99.90;;;;;;4938494;28;20463;-70
2022/12/03 11:42:25;;;;;;;51.60;37.88;;;-0.40;99.90;;;;;;4937492;28;20075;-70
2022/12/03 11:45:27;;;;;;;52.13;38.63;;;-0.40;99.90;;;;;;4933979;28;20106;-70
2022/12/03 11:48:20;;;;;;;46.50;37.33;;;-0.30;99.90;;;;;;4932466;28;20059;-70
2022/12/03 11:50:52;;;;;;;47.97;37.65;;;0.00;99.90;;;;;;4932075;28;20334;-71
2022/12/03 11:53:22;;;;;;;50.47;38.05;;;-0.20;99.90;;;;;;4936116;28;20313;-70
2022/12/03 11:56:09;;;;;;;51.20;38.55;;;-0.40;99.90;;;;;;4932275;28;20054;-70
2022/12/03 11:58:42;;;;;;;50.15;37.47;;;-0.30;99.90;;;;;;4925429;28;20058;-70
2022/12/03 12:01:09;;;;;;;54.75;37.38;;;-0.20;99.90;;;;;;4936282;28;20116;-70
2022/12/03 12:03:44;;;;;;;49.38;35.40;;;-0.30;99.90;;;;;;4934968;28;20075;-70
2022/12/03 12:06:19;;;;;;;48.25;36.25;;;-0.30;99.90;;;;;;4934916;28;20048;-70
2022/12/03 12:08:49;;;;;;;53.00;36.78;;;-0.30;99.90;;;;;;4933919;28;20043;-70
2022/12/03 12:11:34;;;;;;;51.72;38.50;;;-0.30;99.90;;;;;;4920259;29;20047;-70
2022/12/03 12:14:05;;;;;;;49.35;36.45;;;-0.30;99.90;;;;;;4934648;28;20641;-70
2022/12/03 12:16:51;;;;;;;57.38;37.25;;;-0.40;99.90;;;;;;4937044;28;20149;-71
2022/12/03 12:19:37;;;;;;;41.85;33.25;;;-0.40;99.90;;;;;;4938503;28;20043;-70
2022/12/03 12:22:23;;;;;;;48.72;34.63;;;-0.40;99.90;;;;;;4934171;28;20067;-70
2022/12/03 12:24:59;;;;;;;54.45;33.20;;;-0.60;99.90;;;;;;4934635;28;20058;-71
2022/12/03 12:27:38;;;;;;;49.97;33.45;;;-0.60;99.90;;;;;;4934170;28;20268;-72
2022/12/03 12:30:08;;;;;;;48.67;31.42;;;-0.70;99.90;;;;;;4934975;28;20055;-70
2022/12/03 12:32:49;;;;;;;51.03;33.47;;;-0.60;99.90;;;;;;4938322;28;20270;-70
2022/12/03 12:35:24;;;;;;;53.22;35.38;;;-0.60;99.90;;;;;;4937367;28;20047;-70
2022/12/03 12:38:09;;;;;;;53.20;34.70;;;-0.60;99.90;;;;;;4933662;28;21861;-70
2022/12/03 12:40:39;;;;;;;57.20;36.97;;;-0.50;99.90;;;;;;4916029;28;20048;-70
2022/12/03 12:43:26;;;;;;;53.25;36.30;;;-0.50;99.90;;;;;;4934162;28;20706;-70
2022/12/03 12:45:55;;;;;;;54.05;34.47;;;-0.60;99.90;;;;;;4935573;28;20043;-71
2022/12/03 12:48:32;;;;;;;56.35;34.72;;;-0.60;99.90;;;;;;4934733;28;20036;-70
2022/12/03 12:51:17;;;;;;;57.75;35.90;;;-0.50;99.90;;;;;;4934585;28;20122;-70
2022/12/03 12:53:44;;;;;;;55.63;35.30;;;-0.50;99.90;;;;;;4937869;28;20071;-70
2022/12/03 12:56:26;;;;;;;57.17;35.53;;;-0.40;99.90;;;;;;4949312;29;20051;-71
2022/12/03 12:58:55;;;;;;;55.10;35.65;;;-0.40;99.90;;;;;;4961515;28;20067;-71
2022/12/03 13:01:25;;;;;;;54.30;33.53;;;-0.50;99.90;;;;;;4941241;28;20036;-71
2022/12/03 13:03:53;;;;;;;54.88;34.17;;;-0.60;99.90;;;;;;4936390;28;20062;-71
2022/12/03 13:06:25;;;;;;;58.85;36.42;;;-0.50;99.90;;;;;;4940215;28;20047;-70
2022/12/03 13:08:52;;;;;;;55.95;33.40;;;-0.50;99.90;;;;;;4939974;28;20223;-71
2022/12/03 13:11:40;;;;;;;58.97;35.40;;;-0.50;99.90;;;;;;4940358;28;20122;-71